Aviation Digital Data Service (ADDS)

Output produced by METARs form (1928 UTC 18 June 2019)
found at http://www.aviationweather.gov/metar/data/
 
KAID 181759Z 00000KT 10SM SCT014/ SCT020/ BKN120 24/20 A2993
KANQ 181915Z AUTO VRB04G10KT 10SM CLR 24/17 A2992 RMK AO2
KGWB 181915Z AUTO 07003KT 7SM BKN037 25/17 A2993 RMK AO2
KBMG 181853Z 15005KT 10SM FEW041 SCT060 27/21 A2989 RMK AO2 SLP114 T02670211
KBMG 181723Z 1818/1918 VRB03KT P6SM VCSH SCT025 BKN040 
     FM182300 00000KT P6SM BKN090 
     FM191000 00000KT 4SM BR BKN004 
     FM191600 VRB03KT 6SM -SHRA BR BKN040
       
KBAK 181848Z 19005KT 10SM SCT019 BKN037 25/20 A2990
KCFJ 181915Z AUTO 33006KT 10SM SCT034 26/19 A2990 RMK AO2 T02570185
KEKM 181850Z 00000KT 10SM SCT041 25/15 A2993 RMK AO2
KEVV 181854Z 18008KT 10SM SCT021 26/22 A2989 RMK AO2 LTG DSNT E SLP116 T02610217
KEVV 181720Z 1818/1918 21007KT P6SM VCSH SCT035 
     TEMPO 1818/1820 BKN025 
     FM190000 VRB03KT P6SM FEW030 SCT080 
     FM191100 VRB02KT 5SM BR BKN012 
     FM191400 23006KT P6SM SCT012 BKN030
       
KFWA 181854Z VRB03KT 10SM FEW037 SCT055 27/16 A2992 RMK AO2 SLP127 T02670161
KFWA 181720Z 1818/1918 08003KT P6SM BKN050 
     FM190000 VRB03KT P6SM SCT040 
     FM191100 VRB03KT 6SM BR FEW015 BKN060 
     FM191500 VRB04KT P6SM BKN070
       
KFKR 181915Z AUTO 04007KT 10SM SCT033 SCT043 OVC049 23/20 A2993 RMK AO2 T02340203 TSNO
KFRH 181915Z AUTO 19004KT 10SM SCT014 SCT019 SCT055 25/20 A2990 RMK AO1
KGYY 181845Z COR 06003KT 7SM FEW010 BKN 200 20/18 A2995
KGYY 181740Z 1818/1918 03006KT 3SM BR BKN015 
     TEMPO 1818/1820 BKN007 
     FM182000 04007KT P6SM SCT050 SCT150 
     FM190300 VRB03KT 4SM BR SCT050 BKN100 
     FM190800 VRB03KT 1 1/2SM BR SCT050 BKN100 
     TEMPO 1909/1912 1/2SM FG 
     FM191300 04008KT P6SM SCT030 OVC060
       
KGSH 181853Z AUTO 00000KT 10SM CLR 26/17 A2992 RMK AO2 SLP127 T02560167
KHNB 181917Z AUTO 20008KT 10SM -RA FEW120 22/20 A2990 RMK AO2 TSE11 P0000
KHNB 181720Z 1818/1918 VRB04KT P6SM VCSH BKN040 
     FM190300 00000KT P6SM BKN090 
     FM190800 VRB03KT 4SM BR VCSH OVC012 
     TEMPO 1909/1913 BKN008 
     FM191500 21007KT P6SM VCSH BKN022
       
KHHG 181915Z AUTO 06003KT 10SM CLR 27/17 A2991 RMK AO2 T02690168
KEYE 181853Z AUTO VRB04KT 10SM FEW030 FEW100 27/20 A2988 RMK AO2 SLP112 T02670200
KTYQ 181915Z AUTO 08007KT 10SM SCT015 BKN020 BKN050 23/21 A2992 RMK AO2 T02250213
KIND 181854Z VRB03KT 10SM SCT029TCU BKN060 BKN090 28/20 A2989 RMK AO2 SLP114 TCU NE AND W-NW T02780200
KIND 181723Z 1818/1924 VRB05KT P6SM VCSH SCT025 BKN050 
     FM182300 VRB03KT P6SM BKN080 
     FM191000 VRB03KT 6SM BR BKN011 
     FM191400 VRB04KT P6SM VCSH BKN035
       
KMQJ 181923Z AUTO 05003KT 10SM BKN080 BKN100 25/23 A2990 RMK AO1
KJVY 181915Z AUTO 33006KT 10SM -DZ SCT025 SCT040 BKN050 26/23 A2989 RMK AO2 T02620225
KC62 181915Z AUTO 02003KT 10SM SCT060 SCT065 25/14 A2993 RMK AO2 T02480144
KOXI 181910Z AUTO 10SM SCT037 SCT060 25/16 A2992 RMK AO1
KOKK 181856Z AUTO 10005KT 10SM FEW070 27/19 A2991 RMK AO2 SLP125 T02670189
KLAF 181854Z 30006KT 10SM SCT036 SCT046 26/19 A2989 RMK AO2 SLP117 T02610189
KLAF 181723Z 1818/1918 VRB04KT P6SM BKN060 
     FM182000 VRB03KT P6SM SCT080 
     FM190500 00000KT 6SM BR BKN200 
     FM191300 VRB05KT P6SM VCSH BKN060
       
KPPO 181915Z AUTO 35006KT 10SM SCT031 A2994 RMK AO2
KGGP 181915Z AUTO 22003KT 10SM SCT039 SCT046 SCT055 26/17 A2991 RMK AO2
KIMS 181916Z AUTO 22007KT 10SM SCT015 SCT032 SCT040 24/22 A2992 RMK AO1
KMZZ 181915Z AUTO 00000KT 10SM SCT031 SCT038 BKN075 25/20 A2992 RMK AO2 T02540195
KMGC 181915Z AUTO 33005KT 7SM CLR 20/08 A2995 RMK AO2
KMCX 181915Z AUTO 03003KT 10SM BKN038 26/16 A2989 RMK AO2 T02580160
KMIE 181853Z 13003KT 10SM SCT055 OVC075 26/19 A2991 RMK AO2 SLP117 T02560189
KGUS 181856Z 05004KT 10SM SCT038 27/19 A2990 RMK AO2A SLP123 T02670190 $
TAF KGUS 181900Z 1819/2001 VRB06KT 8000 -SHRA SCT030 QNH2986INS 
     BECMG 1900/1901 20006KT 9999 NSW BKN030 QNH2983INS 
     BECMG 1907/1908 20006KT 9999 BKN030 QNH2982INS 
     BECMG 1914/1915 22006KT 8000 -SHRA SCT012 BKN024 QNH2977INS 
     TEMPO 1918/1924 22015G25KT 6000 -TSRA OVC012CB TX28/1821Z TN16/1910Z
       
KC65 181915Z AUTO 00000KT 10SM FEW039 FEW049 SCT060 25/20 A2991 RMK A01
KPLD 181915Z AUTO 01005KT 10SM SCT034 SCT041 SCT046 25/15 A2991 RMK AO2
KRZL 181915Z AUTO 17003KT 10SM BKN031 BKN039 25/17 A2991 RMK AO2
KRCR 181915Z AUTO 00000KT 10SM SCT035 SCT042 SCT050 27/17 A2991 RMK AO2
KGEZ 181853Z AUTO 00000KT 10SM CLR 28/19 A2988 RMK AO2 SLP113 T02780194
KHUF 181900Z 00000KT 10SM FEW029 27/19 A2989 RMK AO2 T02720194
KHUF 181723Z 1818/1918 VRB03KT P6SM VCSH SCT020 BKN030 
     FM182300 VRB03KT P6SM SCT100 
     FM191100 00000KT 4SM BR BKN020 
     FM191500 VRB04KT 6SM -SHRA BR BKN040
       
KVPZ 181856Z AUTO VRB04KT 10SM SCT028 26/17 A2994 RMK AO2 SLP134 T02560167
KASW 181915Z AUTO 00000KT 10SM SCT040 BKN060 BKN070 23/16 A2992 RMK AO2
KDCY 181915Z AUTO 14007KT 10SM -RA SCT039 BKN048 OVC060 23/23 A2988 RMK AO2 T02330231